Time;durP1;ratioP1;P1;durP2;ratioP2;P2;SDS_P1;SDS_P2;PMS_P1;PMS_P2;Temp;Humidity;BMP_temperature;BMP_pressure;BME280_temperature;BME280_humidity;BME280_pressure;Samples;Min_cycle;Max_cycle;Signal;HPM_P1;HPM_P2
2023/02/11 00:01:34;;;;;;;47.53;18.10;;;;;;;;;;4916997;29;20059;-76
2023/02/11 00:04:01;;;;;;;44.30;17.70;;;;;;;;;;4921195;29;20031;-76
2023/02/11 00:06:28;;;;;;;45.72;17.23;;;;;;;;;;4923320;29;20036;-77
2023/02/11 00:08:54;;;;;;;45.55;17.52;;;;;;;;;;4923454;29;20487;-76
2023/02/11 00:11:29;;;;;;;45.28;18.13;;;;;;;;;;4925226;29;20043;-75
2023/02/11 00:13:57;;;;;;;40.67;17.75;;;;;;;;;;4925947;29;20135;-76
2023/02/11 00:16:25;;;;;;;45.70;18.23;;;;;;;;;;4918858;29;20027;-77
2023/02/11 00:18:56;;;;;;;49.25;18.13;;;;;;;;;;4919828;29;20512;-75
2023/02/11 00:21:23;;;;;;;44.88;17.52;;;;;;;;;;4926143;29;20055;-76
2023/02/11 00:23:53;;;;;;;47.90;17.85;;;;;;;;;;4919104;29;20032;-77
2023/02/11 00:26:23;;;;;;;;;;;;;;;;;;4919848;29;20035;-76
2023/02/11 00:28:52;;;;;;;41.25;15.73;;;;;;;;;;4921199;29;19923;-77
2023/02/11 00:31:19;;;;;;;41.33;16.00;;;;;;;;;;4923987;29;20043;-76
2023/02/11 00:33:47;;;;;;;39.90;16.13;;;;;;;;;;4924989;29;20033;-77
2023/02/11 00:36:22;;;;;;;40.97;16.30;;;;;;;;;;4916135;29;20028;-77
2023/02/11 00:38:48;;;;;;;42.45;16.50;;;;;;;;;;4925416;29;20025;-77
2023/02/11 00:41:15;;;;;;;42.50;16.63;;;;;;;;;;4923859;29;20046;-78
2023/02/11 00:43:41;;;;;;;42.10;17.13;;;;;;;;;;4915857;29;20119;-77
2023/02/11 00:46:09;;;;;;;40.25;16.55;;;;;;;;;;4923222;29;20484;-77
2023/02/11 00:48:37;;;;;;;40.70;16.67;;;;;;;;;;4915962;29;20044;-76
2023/02/11 00:51:06;;;;;;;40.97;16.85;;;;;;;;;;4915860;29;20024;-76
2023/02/11 00:53:32;;;;;;;40.08;17.35;;;;;;;;;;4921093;29;20036;-76
2023/02/11 00:55:57;;;;;;;42.13;17.27;;;;;;;;;;4915510;29;20028;-78
2023/02/11 00:58:23;;;;;;;44.10;17.50;;;;;;;;;;4925165;29;20027;-76
2023/02/11 01:00:48;;;;;;;38.58;16.25;;;;;;;;;;4926398;29;20494;-77
2023/02/11 01:03:18;;;;;;;44.15;16.52;;;;;;;;;;4926140;29;20387;-76
2023/02/11 01:05:46;;;;;;;38.70;15.32;;;;;;;;;;4914131;29;20023;-77
2023/02/11 01:08:11;;;;;;;41.85;17.63;;;;;;;;;;4918705;29;20024;-75
2023/02/11 01:10:39;;;;;;;42.78;16.45;;;;;;;;;;4917658;29;20095;-77
2023/02/11 01:13:05;;;;;;;36.47;15.40;;;;;;;;;;4917706;29;20020;-78
2023/02/11 01:15:31;;;;;;;49.50;19.92;;;;;;;;;;4919346;29;20023;-74
2023/02/11 01:17:57;;;;;;;46.60;16.40;;;;;;;;;;4920034;29;20016;-76
2023/02/11 01:20:25;;;;;;;42.67;17.08;;;;;;;;;;4919735;29;20047;-77
2023/02/11 01:22:51;;;;;;;37.93;16.07;;;;;;;;;;4923629;29;20086;-76
2023/02/11 01:25:16;;;;;;;42.95;17.38;;;;;;;;;;4916114;29;20036;-75
2023/02/11 01:27:42;;;;;;;45.97;17.48;;;;;;;;;;4917615;29;20028;-75
2023/02/11 01:30:12;;;;;;;43.72;17.33;;;;;;;;;;4914201;29;20391;-79
2023/02/11 01:32:38;;;;;;;46.53;17.60;;;;;;;;;;4915456;29;20083;-76
2023/02/11 01:35:04;;;;;;;45.53;17.70;;;;;;;;;;4917823;29;20028;-76
2023/02/11 01:37:34;;;;;;;42.45;17.75;;;;;;;;;;4920008;29;20055;-78
2023/02/11 01:40:06;;;;;;;;;;;;;;;;;;4924295;29;20020;-76
2023/02/11 01:42:32;;;;;;;44.15;16.73;;;;;;;;;;4923668;29;20519;-77
2023/02/11 01:45:00;;;;;;;50.20;19.23;;;;;;;;;;4917640;29;20064;-77
2023/02/11 01:47:26;;;;;;;50.97;18.77;;;;;;;;;;4913007;29;20036;-76
2023/02/11 01:49:55;;;;;;;46.35;18.40;;;;;;;;;;4913503;29;20063;-76
2023/02/11 01:52:27;;;;;;;46.53;17.23;;;;;;;;;;4918843;29;21602;-77
2023/02/11 01:57:43;;;;;;;54.53;19.98;;;;;;;;;;4925545;29;20042;-77
2023/02/11 02:00:14;;;;;;;46.90;17.73;;;;;;;;;;4918447;29;20517;-77
2023/02/11 02:02:43;;;;;;;43.33;17.63;;;;;;;;;;4916512;29;20115;-77
2023/02/11 02:05:52;;;;;;;46.40;17.92;;;;;;;;;;4916282;29;20634;-77
2023/02/11 02:08:28;;;;;;;48.63;17.33;;;;;;;;;;4903191;29;20048;-76
2023/02/11 02:10:55;;;;;;;40.92;17.08;;;;;;;;;;4919461;29;20039;-77
2023/02/11 02:13:23;;;;;;;46.78;18.33;;;;;;;;;;4914602;29;20028;-76
2023/02/11 02:16:00;;;;;;;40.47;16.52;;;;;;;;;;4915659;29;20034;-77
2023/02/11 02:18:53;;;;;;;49.22;18.23;;;;;;;;;;4918837;29;20078;-78
2023/02/11 02:21:52;;;;;;;46.85;17.73;;;;;;;;;;4914136;29;20448;-77
2023/02/11 02:24:45;;;;;;;45.55;18.17;;;;;;;;;;4914287;29;20057;-79
2023/02/11 02:27:39;;;;;;;43.78;17.40;;;;;;;;;;4912291;29;20024;-77
2023/02/11 02:30:13;;;;;;;40.38;16.85;;;;;;;;;;4911263;29;20048;-75
2023/02/11 02:32:44;;;;;;;40.72;16.92;;;;;;;;;;4914919;29;20514;-76
2023/02/11 02:35:29;;;;;;;45.65;16.88;;;;;;;;;;4915564;29;20032;-76
2023/02/11 02:38:06;;;;;;;49.42;18.33;;;;;;;;;;4914954;29;20028;-77
2023/02/11 02:40:35;;;;;;;46.85;18.38;;;;;;;;;;4914030;29;20666;-75
2023/02/11 02:43:03;;;;;;;56.08;19.27;;;;;;;;;;4919276;29;20024;-76
2023/02/11 02:45:29;;;;;;;48.78;17.75;;;;;;;;;;4920135;29;20024;-76
2023/02/11 02:47:57;;;;;;;44.83;18.00;;;;;;;;;;4917163;29;20043;-78
2023/02/11 02:50:29;;;;;;;58.75;20.52;;;;;;;;;;4922126;28;20043;-79
2023/02/11 02:53:06;;;;;;;55.78;20.48;;;;;;;;;;4939321;28;20028;-77
2023/02/11 02:55:47;;;;;;;54.17;20.75;;;;;;;;;;4919518;29;20043;-77
2023/02/11 02:58:15;;;;;;;54.97;19.73;;;;;;;;;;4914462;29;20484;-77
2023/02/11 03:01:07;;;;;;;50.90;18.80;;;;;;;;;;4921403;29;20500;-77
2023/02/11 03:03:57;;;;;;;42.95;17.58;;;;;;;;;;4909500;29;20055;-78
2023/02/11 03:06:22;;;;;;;;;;;;;;;;;;4916829;29;20040;-77
2023/02/11 03:09:26;;;;;;;46.15;16.08;;;;;;;;;;4919816;29;20013;-77
2023/02/11 03:11:52;;;;;;;39.92;15.88;;;;;;;;;;4919186;29;20451;-77
2023/02/11 03:14:19;;;;;;;39.35;17.50;;;;;;;;;;4919019;29;20111;-76
2023/02/11 03:16:47;;;;;;;39.78;15.98;;;;;;;;;;4917464;29;20399;-76
2023/02/11 03:19:34;;;;;;;43.63;17.88;;;;;;;;;;4913367;29;20024;-77
2023/02/11 03:22:05;;;;;;;39.08;15.35;;;;;;;;;;4919291;29;20491;-77
2023/02/11 03:24:35;;;;;;;34.60;14.50;;;;;;;;;;4916933;29;20403;-77
2023/02/11 03:27:09;;;;;;;39.55;14.70;;;;;;;;;;4914940;29;20541;-76
2023/02/11 03:29:53;;;;;;;39.85;17.20;;;;;;;;;;4917182;29;20036;-77
2023/02/11 03:32:35;;;;;;;46.25;17.65;;;;;;;;;;4914166;29;20072;-77
2023/02/11 03:35:16;;;;;;;40.03;16.50;;;;;;;;;;4916317;29;20111;-77
2023/02/11 03:37:52;;;;;;;44.03;16.70;;;;;;;;;;4918499;29;20498;-75
2023/02/11 03:40:24;;;;;;;43.17;17.40;;;;;;;;;;4912423;29;20041;-77
2023/02/11 03:42:58;;;;;;;43.17;18.38;;;;;;;;;;4912395;29;20028;-77
2023/02/11 03:45:24;;;;;;;48.88;18.60;;;;;;;;;;4914228;29;20119;-76
2023/02/11 03:47:56;;;;;;;44.05;16.65;;;;;;;;;;4917547;29;20043;-76
2023/02/11 03:50:26;;;;;;;38.45;16.77;;;;;;;;;;4914472;29;20036;-76
2023/02/11 03:52:53;;;;;;;46.35;18.05;;;;;;;;;;4927975;29;20151;-77
2023/02/11 03:55:21;;;;;;;41.97;18.73;;;;;;;;;;4927292;29;20040;-77
2023/02/11 03:57:46;;;;;;;43.88;17.92;;;;;;;;;;4927578;29;20031;-76
2023/02/11 04:00:13;;;;;;;45.08;17.42;;;;;;;;;;4918573;29;20031;-77
2023/02/11 04:02:40;;;;;;;43.75;18.30;;;;;;;;;;4925003;29;20534;-76
2023/02/11 04:05:07;;;;;;;43.17;17.50;;;;;;;;;;4922487;29;20024;-77
2023/02/11 04:07:32;;;;;;;43.38;17.27;;;;;;;;;;4916125;29;20075;-77
2023/02/11 04:09:58;;;;;;;44.78;18.33;;;;;;;;;;4916207;29;20079;-76
2023/02/11 04:12:25;;;;;;;40.90;18.23;;;;;;;;;;4915308;29;20028;-78
2023/02/11 04:14:51;;;;;;;44.47;18.08;;;;;;;;;;4921655;29;20032;-75
2023/02/11 04:17:17;;;;;;;43.08;16.85;;;;;;;;;;4920030;29;20032;-78
2023/02/11 04:19:42;;;;;;;46.72;17.42;;;;;;;;;;4921291;29;20024;-76
2023/02/11 04:22:08;;;;;;;43.15;18.00;;;;;;;;;;4918028;29;20391;-76
2023/02/11 04:24:33;;;;;;;41.58;17.05;;;;;;;;;;4918960;29;20104;-77
2023/02/11 04:26:59;;;;;;;42.70;19.23;;;;;;;;;;4923706;29;20019;-78
2023/02/11 04:29:24;;;;;;;38.78;17.27;;;;;;;;;;4920163;29;20519;-78
2023/02/11 04:31:53;;;;;;;39.25;15.80;;;;;;;;;;4923459;29;20091;-77
2023/02/11 04:34:18;;;;;;;40.47;17.52;;;;;;;;;;4917732;29;20091;-76
2023/02/11 04:36:46;;;;;;;39.55;16.88;;;;;;;;;;4925621;29;20024;-76
2023/02/11 04:39:14;;;;;;;39.45;16.92;;;;;;;;;;4921315;29;20468;-77
2023/02/11 04:41:39;;;;;;;42.40;17.25;;;;;;;;;;4915260;29;20064;-77
2023/02/11 04:44:05;;;;;;;39.85;16.95;;;;;;;;;;4919601;29;20071;-76
2023/02/11 04:46:30;;;;;;;38.65;17.65;;;;;;;;;;4922865;29;20043;-77
2023/02/11 04:48:58;;;;;;;34.85;16.02;;;;;;;;;;4915468;29;20476;-76
2023/02/11 04:51:26;;;;;;;39.80;16.50;;;;;;;;;;4916914;29;20051;-76
2023/02/11 04:53:51;;;;;;;39.15;15.35;;;;;;;;;;4919501;29;20036;-76
2023/02/11 04:56:17;;;;;;;39.00;16.00;;;;;;;;;;4921048;29;20031;-76
2023/02/11 04:58:42;;;;;;;43.25;15.65;;;;;;;;;;4922098;29;20035;-75
2023/02/11 05:01:10;;;;;;;37.83;16.40;;;;;;;;;;4920745;29;20032;-76
2023/02/11 05:03:35;;;;;;;44.03;18.88;;;;;;;;;;4922406;29;20032;-76
2023/02/11 05:06:01;;;;;;;47.88;19.13;;;;;;;;;;4922166;29;20511;-76
2023/02/11 05:08:27;;;;;;;52.10;21.33;;;;;;;;;;4922033;29;20028;-77
2023/02/11 05:10:52;;;;;;;50.90;22.88;;;;;;;;;;4927636;29;20031;-76
2023/02/11 05:13:18;;;;;;;60.40;25.65;;;;;;;;;;4919425;29;20110;-75
2023/02/11 05:15:43;;;;;;;55.90;23.75;;;;;;;;;;4917844;29;20019;-77
2023/02/11 05:18:08;;;;;;;59.00;26.63;;;;;;;;;;4916686;29;20025;-77
2023/02/11 05:20:37;;;;;;;61.83;25.45;;;;;;;;;;4920469;29;20040;-77
2023/02/11 05:23:04;;;;;;;62.75;25.90;;;;;;;;;;4917270;29;20055;-76
2023/02/11 05:25:30;;;;;;;60.63;26.05;;;;;;;;;;4917841;29;20048;-76
2023/02/11 05:28:00;;;;;;;57.25;26.27;;;;;;;;;;4918139;29;20079;-77
2023/02/11 05:30:26;;;;;;;61.03;24.67;;;;;;;;;;4924991;29;20039;-77
2023/02/11 05:32:51;;;;;;;61.08;24.63;;;;;;;;;;4917629;29;20039;-77
2023/02/11 05:35:17;;;;;;;60.15;25.10;;;;;;;;;;4915760;29;20039;-77
2023/02/11 05:37:42;;;;;;;59.33;24.25;;;;;;;;;;4922394;29;20038;-76
2023/02/11 05:40:08;;;;;;;60.90;24.08;;;;;;;;;;4919735;29;20124;-76
2023/02/11 05:42:33;;;;;;;60.17;24.10;;;;;;;;;;4918046;29;20032;-77
2023/02/11 05:45:01;;;;;;;56.55;23.45;;;;;;;;;;4924774;29;20036;-77
2023/02/11 05:47:26;;;;;;;61.50;24.00;;;;;;;;;;4919245;29;20027;-77
2023/02/11 05:49:54;;;;;;;57.67;23.63;;;;;;;;;;4916480;29;20475;-77
2023/02/11 05:52:20;;;;;;;54.17;23.80;;;;;;;;;;4923309;29;20032;-77
2023/02/11 05:54:48;;;;;;;63.47;23.13;;;;;;;;;;4923623;29;20407;-78
2023/02/11 05:57:15;;;;;;;55.95;22.02;;;;;;;;;;4917392;29;20040;-76
2023/02/11 05:59:41;;;;;;;54.65;22.65;;;;;;;;;;4920337;29;20032;-77
2023/02/11 06:02:08;;;;;;;58.72;22.77;;;;;;;;;;4917949;29;20032;-76
2023/02/11 06:04:35;;;;;;;57.20;22.42;;;;;;;;;;4921373;29;20075;-77
2023/02/11 06:07:02;;;;;;;53.55;21.63;;;;;;;;;;4916343;29;20476;-77
2023/02/11 06:09:28;;;;;;;53.67;20.63;;;;;;;;;;4920272;29;20024;-76
2023/02/11 06:11:53;;;;;;;46.38;19.10;;;;;;;;;;4919740;29;20039;-77
2023/02/11 06:14:19;;;;;;;49.30;20.17;;;;;;;;;;4918791;29;20093;-77
2023/02/11 06:16:44;;;;;;;51.38;20.10;;;;;;;;;;4919874;29;20050;-76
2023/02/11 06:19:10;;;;;;;45.03;18.95;;;;;;;;;;4914142;29;20056;-76
2023/02/11 06:21:36;;;;;;;51.88;20.38;;;;;;;;;;4914821;29;20027;-76
2023/02/11 06:24:01;;;;;;;53.70;20.13;;;;;;;;;;4917002;29;20043;-76
2023/02/11 06:26:26;;;;;;;40.58;17.25;;;;;;;;;;4915772;29;20032;-77
2023/02/11 06:28:52;;;;;;;46.40;19.88;;;;;;;;;;4920855;29;20114;-76
2023/02/11 06:31:17;;;;;;;50.00;22.02;;;;;;;;;;4918122;29;20136;-76
2023/02/11 06:33:43;;;;;;;60.40;23.63;;;;;;;;;;4914268;29;20407;-77
2023/02/11 06:36:14;;;;;;;67.32;28.40;;;;;;;;;;4915826;29;20079;-76
2023/02/11 06:38:40;;;;;;;72.45;27.95;;;;;;;;;;4915546;29;20028;-77
2023/02/11 06:41:07;;;;;;;63.90;27.63;;;;;;;;;;4918025;29;20193;-77
2023/02/11 06:43:33;;;;;;;65.15;26.25;;;;;;;;;;4918700;29;20032;-77
2023/02/11 06:45:58;;;;;;;68.95;27.50;;;;;;;;;;4922527;29;20075;-77
2023/02/11 06:48:25;;;;;;;60.58;26.00;;;;;;;;;;4911632;29;20484;-77
2023/02/11 06:50:51;;;;;;;64.25;25.27;;;;;;;;;;4913929;29;20044;-77
2023/02/11 06:53:19;;;;;;;66.13;24.98;;;;;;;;;;4922877;29;20058;-76
2023/02/11 06:55:45;;;;;;;53.03;23.55;;;;;;;;;;4919168;29;20028;-77
2023/02/11 06:58:10;;;;;;;61.75;25.77;;;;;;;;;;4917535;29;20020;-77
2023/02/11 07:00:38;;;;;;;66.82;26.38;;;;;;;;;;4921575;29;20043;-76
2023/02/11 07:03:04;;;;;;;73.03;28.98;;;;;;;;;;4920087;29;20028;-75
2023/02/11 07:05:29;;;;;;;73.30;28.42;;;;;;;;;;4915724;29;20375;-77
2023/02/11 07:07:54;;;;;;;72.45;30.65;;;;;;;;;;4918617;29;20450;-75
2023/02/11 07:10:20;;;;;;;77.70;28.70;;;;;;;;;;4920285;29;20024;-76
2023/02/11 07:12:45;;;;;;;70.65;28.52;;;;;;;;;;4920850;29;20038;-76
2023/02/11 07:15:11;;;;;;;76.20;30.80;;;;;;;;;;4913873;29;20032;-77
2023/02/11 07:17:36;;;;;;;69.80;29.45;;;;;;;;;;4912635;29;20039;-76
2023/02/11 07:20:02;;;;;;;73.15;30.40;;;;;;;;;;4915157;29;20028;-76
2023/02/11 07:22:28;;;;;;;84.40;34.80;;;;;;;;;;4915047;29;20480;-76
2023/02/11 07:24:56;;;;;;;83.10;34.40;;;;;;;;;;4922294;29;20039;-77
2023/02/11 07:27:21;;;;;;;70.22;30.42;;;;;;;;;;4925085;29;20043;-76
2023/02/11 07:29:47;;;;;;;63.45;27.73;;;;;;;;;;4927206;29;20032;-77
2023/02/11 07:32:13;;;;;;;70.68;32.35;;;;;;;;;;4917180;29;20031;-76
2023/02/11 07:34:38;;;;;;;67.75;32.55;;;;;;;;;;4918406;29;20034;-77
2023/02/11 07:37:06;;;;;;;73.38;31.67;;;;;;;;;;4925281;29;20080;-77
2023/02/11 07:39:31;;;;;;;69.70;30.05;;;;;;;;;;4917836;29;20111;-75
2023/02/11 07:41:57;;;;;;;65.97;28.48;;;;;;;;;;4927297;29;20515;-77
2023/02/11 07:44:22;;;;;;;68.35;28.92;;;;;;;;;;4918895;29;20032;-78
2023/02/11 07:46:48;;;;;;;68.93;30.20;;;;;;;;;;4916297;29;20123;-77
2023/02/11 07:49:14;;;;;;;74.90;32.85;;;;;;;;;;4912019;29;20092;-79
2023/02/11 07:51:40;;;;;;;76.90;30.30;;;;;;;;;;4926351;29;20103;-78
2023/02/11 07:54:05;;;;;;;64.60;27.40;;;;;;;;;;4926457;29;20122;-76
2023/02/11 07:56:34;;;;;;;65.38;28.02;;;;;;;;;;4922449;29;20135;-76
2023/02/11 07:59:02;;;;;;;59.78;25.35;;;;;;;;;;4919288;29;20020;-78
2023/02/11 08:01:28;;;;;;;69.85;28.33;;;;;;;;;;4924067;29;20031;-77
2023/02/11 08:03:55;;;;;;;66.25;28.13;;;;;;;;;;4923594;29;20063;-77
2023/02/11 08:06:23;;;;;;;79.40;34.40;;;;;;;;;;4919119;29;20119;-76
2023/02/11 08:08:48;;;;;;;81.10;35.85;;;;;;;;;;4917813;29;20040;-76
2023/02/11 08:11:22;;;;;;;83.75;35.67;;;;;;;;;;4916009;29;20124;-76
2023/02/11 08:13:50;;;;;;;81.90;34.97;;;;;;;;;;4916213;29;20230;-77
2023/02/11 08:16:30;;;;;;;83.15;35.65;;;;;;;;;;4917157;29;20118;-77
2023/02/11 08:18:57;;;;;;;77.65;36.35;;;;;;;;;;4916583;29;20024;-77
2023/02/11 08:21:23;;;;;;;83.43;35.38;;;;;;;;;;4922647;29;20088;-76
2023/02/11 08:23:48;;;;;;;63.60;27.60;;;;;;;;;;4922513;29;20038;-76
2023/02/11 08:26:19;;;;;;;64.78;29.05;;;;;;;;;;4918234;29;20107;-76
2023/02/11 08:28:46;;;;;;;79.28;33.00;;;;;;;;;;4923883;29;20035;-76
2023/02/11 08:31:26;;;;;;;87.78;36.17;;;;;;;;;;4919763;29;20083;-77
2023/02/11 08:33:53;;;;;;;74.00;35.05;;;;;;;;;;4911662;29;20035;-77
2023/02/11 08:36:26;;;;;;;42.55;19.05;;;;;;;;;;4914550;29;20478;-76
2023/02/11 08:38:54;;;;;;;55.03;25.25;;;;;;;;;;4910885;29;20023;-76
2023/02/11 08:41:19;;;;;;;68.15;31.88;;;;;;;;;;4921218;29;20079;-76
2023/02/11 08:43:45;;;;;;;74.10;32.35;;;;;;;;;;4925559;29;20106;-75
2023/02/11 08:46:13;;;;;;;79.50;33.35;;;;;;;;;;4925426;29;20558;-76
2023/02/11 08:48:39;;;;;;;74.88;32.17;;;;;;;;;;4917843;29;20032;-76
2023/02/11 08:51:09;;;;;;;68.68;32.25;;;;;;;;;;4916347;29;20028;-76
2023/02/11 08:53:35;;;;;;;79.68;36.15;;;;;;;;;;4918229;29;20036;-76
2023/02/11 08:56:01;;;;;;;81.18;33.03;;;;;;;;;;4918431;29;20031;-76
2023/02/11 08:58:27;;;;;;;84.20;35.75;;;;;;;;;;4920094;29;20043;-76
2023/02/11 09:00:52;;;;;;;80.30;34.50;;;;;;;;;;4919803;29;20090;-76
2023/02/11 09:03:18;;;;;;;80.32;33.03;;;;;;;;;;4922284;29;20040;-76
2023/02/11 09:05:46;;;;;;;87.03;36.17;;;;;;;;;;4923075;29;20098;-77
2023/02/11 09:08:12;;;;;;;96.00;40.00;;;;;;;;;;4920554;29;20476;-76
2023/02/11 09:10:38;;;;;;;92.22;39.20;;;;;;;;;;4915201;29;20044;-76
2023/02/11 09:13:05;;;;;;;47.03;20.88;;;;;;;;;;4919354;29;20035;-76
2023/02/11 09:15:31;;;;;;;61.35;25.08;;;;;;;;;;4917882;29;20432;-76
2023/02/11 09:17:57;;;;;;;68.97;28.85;;;;;;;;;;4917521;29;20047;-76
2023/02/11 09:20:23;;;;;;;60.65;27.83;;;;;;;;;;4915143;29;20024;-76
2023/02/11 09:22:51;;;;;;;42.10;19.08;;;;;;;;;;4924173;29;20030;-77
2023/02/11 09:25:17;;;;;;;39.42;16.27;;;;;;;;;;4919696;29;20044;-77
2023/02/11 09:27:42;;;;;;;36.63;14.88;;;;;;;;;;4917257;29;20454;-77
2023/02/11 09:30:08;;;;;;;25.50;11.23;;;;;;;;;;4916601;29;20039;-76
2023/02/11 09:32:34;;;;;;;22.15;10.00;;;;;;;;;;4918760;29;20483;-76
2023/02/11 09:34:59;;;;;;;20.98;9.48;;;;;;;;;;4914961;29;20083;-76
2023/02/11 09:37:25;;;;;;;20.35;9.40;;;;;;;;;;4916704;29;20557;-77
2023/02/11 09:39:50;;;;;;;23.95;10.05;;;;;;;;;;4914455;29;20167;-76
2023/02/11 09:42:48;;;;;;;24.60;10.52;;;;;;;;;;4915276;29;20031;-76
2023/02/11 09:45:18;;;;;;;45.35;16.02;;;;;;;;;;4910290;29;20052;-77
2023/02/11 09:47:59;;;;;;;47.75;18.33;;;;;;;;;;4914487;29;20052;-77
2023/02/11 09:50:36;;;;;;;23.13;10.60;;;;;;;;;;4915624;29;20036;-76
2023/02/11 09:53:05;;;;;;;23.05;9.90;;;;;;;;;;4922054;29;20035;-76
2023/02/11 09:55:38;;;;;;;24.35;9.77;;;;;;;;;;4921852;29;20499;-76
2023/02/11 09:58:13;;;;;;;21.20;8.82;;;;;;;;;;4918213;29;20036;-77
2023/02/11 10:00:56;;;;;;;16.95;8.48;;;;;;;;;;4920393;29;20111;-78
2023/02/11 10:03:21;;;;;;;19.70;8.82;;;;;;;;;;4917638;29;20084;-76
2023/02/11 10:06:21;;;;;;;19.70;8.40;;;;;;;;;;4922511;29;20035;-77
2023/02/11 10:09:24;;;;;;;27.17;9.77;;;;;;;;;;4917031;29;20031;-77
2023/02/11 10:12:07;;;;;;;23.10;10.40;;;;;;;;;;4910038;29;20669;-76
2023/02/11 10:14:56;;;;;;;23.00;9.65;;;;;;;;;;4918074;29;20028;-76
2023/02/11 10:17:52;;;;;;;25.10;10.75;;;;;;;;;;4913924;29;20040;-76
2023/02/11 10:20:37;;;;;;;19.67;8.20;;;;;;;;;;4911839;29;20123;-76
2023/02/11 10:23:24;;;;;;;28.45;11.93;;;;;;;;;;4913339;29;20028;-76
2023/02/11 10:25:55;;;;;;;31.23;11.00;;;;;;;;;;4916659;29;20031;-76
2023/02/11 10:28:31;;;;;;;18.77;9.15;;;;;;;;;;4920864;29;20032;-77
2023/02/11 10:31:14;;;;;;;24.58;10.65;;;;;;;;;;4916199;29;20032;-76
2023/02/11 10:33:45;;;;;;;28.02;10.65;;;;;;;;;;4910453;29;20042;-76
2023/02/11 10:36:12;;;;;;;39.60;15.60;;;;;;;;;;4917604;29;20036;-76
2023/02/11 10:38:37;;;;;;;43.28;17.48;;;;;;;;;;4901203;29;20105;-76
2023/02/11 10:41:04;;;;;;;48.92;20.00;;;;;;;;;;4913631;29;20045;-78
2023/02/11 10:43:31;;;;;;;48.83;20.00;;;;;;;;;;4915797;29;20035;-77
2023/02/11 10:46:01;;;;;;;48.90;19.38;;;;;;;;;;4914737;29;20030;-76
2023/02/11 10:48:49;;;;;;;48.47;20.13;;;;;;;;;;4913017;29;20111;-76
2023/02/11 10:51:23;;;;;;;50.70;20.20;;;;;;;;;;4914065;29;20530;-77
2023/02/11 10:54:13;;;;;;;55.25;24.15;;;;;;;;;;4922373;29;20040;-76
2023/02/11 10:56:49;;;;;;;61.08;27.77;;;;;;;;;;4919533;29;20024;-76
2023/02/11 10:59:20;;;;;;;69.72;31.05;;;;;;;;;;4920486;29;20479;-76
2023/02/11 11:01:52;;;;;;;73.60;34.35;;;;;;;;;;4919218;29;20118;-76
2023/02/11 11:04:30;;;;;;;74.32;29.92;;;;;;;;;;4922758;29;20516;-77
2023/02/11 11:07:18;;;;;;;71.40;29.20;;;;;;;;;;4924601;29;20034;-75
2023/02/11 11:09:49;;;;;;;60.28;26.00;;;;;;;;;;4920804;29;20040;-76
2023/02/11 11:12:42;;;;;;;62.80;25.90;;;;;;;;;;4918328;29;20039;-76
2023/02/11 11:15:28;;;;;;;74.00;29.85;;;;;;;;;;4918274;29;20050;-77
2023/02/11 11:18:16;;;;;;;64.60;28.60;;;;;;;;;;4917616;29;20255;-77
2023/02/11 11:20:57;;;;;;;63.13;27.80;;;;;;;;;;4921573;29;20418;-77
2023/02/11 11:23:23;;;;;;;60.65;26.83;;;;;;;;;;4925930;29;20373;-77
2023/02/11 11:26:11;;;;;;;64.38;26.60;;;;;;;;;;4924449;29;20063;-77
2023/02/11 11:28:42;;;;;;;54.60;22.88;;;;;;;;;;4925287;29;20031;-77
2023/02/11 11:31:36;;;;;;;54.17;24.83;;;;;;;;;;4918424;29;20036;-77
2023/02/11 11:34:18;;;;;;;51.28;23.23;;;;;;;;;;4922012;29;20452;-76
2023/02/11 11:36:46;;;;;;;56.05;23.92;;;;;;;;;;4921727;29;20044;-77
2023/02/11 11:39:25;;;;;;;54.15;24.08;;;;;;;;;;4917831;29;20036;-77
2023/02/11 11:41:56;;;;;;;65.77;27.63;;;;;;;;;;4916748;29;20032;-77
2023/02/11 11:44:29;;;;;;;71.70;30.95;;;;;;;;;;4921730;29;20079;-77
2023/02/11 11:47:12;;;;;;;58.28;26.15;;;;;;;;;;4920491;29;20292;-76
2023/02/11 11:49:47;;;;;;;62.30;25.42;;;;;;;;;;4916931;29;20104;-76
2023/02/11 11:52:22;;;;;;;61.00;26.08;;;;;;;;;;4917502;29;20028;-77
2023/02/11 11:54:59;;;;;;;72.95;29.20;;;;;;;;;;4916373;29;20123;-76
2023/02/11 11:57:27;;;;;;;63.55;29.30;;;;;;;;;;4918674;29;20083;-76
2023/02/11 11:59:55;;;;;;;58.95;26.55;;;;;;;;;;4924162;29;20087;-77
2023/02/11 12:02:39;;;;;;;56.33;25.73;;;;;;;;;;4924089;29;20039;-76
2023/02/11 12:05:20;;;;;;;57.25;27.02;;;;;;;;;;4926823;29;20028;-77
2023/02/11 12:08:05;;;;;;;61.47;28.13;;;;;;;;;;4922714;29;20042;-77
2023/02/11 12:10:46;;;;;;;68.80;29.05;;;;;;;;;;4916275;29;20491;-77
2023/02/11 12:13:51;;;;;;;66.15;28.98;;;;;;;;;;4915978;29;20123;-77
2023/02/11 12:16:44;;;;;;;66.15;29.38;;;;;;;;;;4900959;29;20047;-77
2023/02/11 12:19:38;;;;;;;62.97;29.65;;;;;;;;;;4919638;29;20124;-76
2023/02/11 12:22:31;;;;;;;69.72;30.67;;;;;;;;;;4916902;29;20028;-78
2023/02/11 12:25:15;;;;;;;63.97;30.95;;;;;;;;;;4920722;29;20032;-78
2023/02/11 12:27:55;;;;;;;74.45;32.65;;;;;;;;;;4918394;29;20032;-77
2023/02/11 12:30:45;;;;;;;76.35;36.03;;;;;;;;;;4915149;29;20103;-78
2023/02/11 12:33:19;;;;;;;79.90;37.17;;;;;;;;;;4917084;29;20111;-77
2023/02/11 12:36:19;;;;;;;106.82;48.03;;;;;;;;;;4916345;29;20119;-78
2023/02/11 12:39:22;;;;;;;94.90;43.42;;;;;;;;;;4922984;29;20020;-77
2023/02/11 12:45:03;;;;;;;66.82;29.00;;;;;;;;;;4923586;29;20054;-77
2023/02/11 12:47:34;;;;;;;94.40;40.58;;;;;;;;;;4916255;29;20323;-77
2023/02/11 12:50:22;;;;;;;81.50;35.90;;;;;;;;;;4914306;29;20025;-77
2023/02/11 12:53:06;;;;;;;63.50;29.52;;;;;;;;;;4919513;29;20486;-77
2023/02/11 12:55:41;;;;;;;67.90;27.23;;;;;;;;;;4921362;29;20095;-77
2023/02/11 12:58:15;;;;;;;62.55;27.40;;;;;;;;;;4917635;29;20035;-77
2023/02/11 13:00:54;;;;;;;59.45;26.50;;;;;;;;;;4924653;29;20028;-77
2023/02/11 13:03:27;;;;;;;70.50;27.85;;;;;;;;;;4917809;29;20141;-77
2023/02/11 13:06:06;;;;;;;62.65;26.65;;;;;;;;;;4916583;29;20039;-77
2023/02/11 13:08:47;;;;;;;71.63;33.10;;;;;;;;;;4916865;29;20396;-77
2023/02/11 13:11:17;;;;;;;70.85;30.92;;;;;;;;;;4915296;29;20036;-77
2023/02/11 13:14:05;;;;;;;63.83;28.20;;;;;;;;;;4918470;29;20080;-77
2023/02/11 13:16:36;;;;;;;65.95;26.20;;;;;;;;;;4917546;29;20067;-76
2023/02/11 13:19:12;;;;;;;60.42;28.35;;;;;;;;;;4918616;29;20111;-77
2023/02/11 13:22:03;;;;;;;64.45;26.20;;;;;;;;;;4916895;29;20034;-77
2023/02/11 13:24:29;;;;;;;62.60;25.35;;;;;;;;;;4915807;29;20028;-77
2023/02/11 13:27:14;;;;;;;66.25;27.17;;;;;;;;;;4913013;29;20378;-77
2023/02/11 13:29:55;;;;;;;48.15;21.98;;;;;;;;;;4920144;29;20395;-77
2023/02/11 13:32:20;;;;;;;48.78;22.63;;;;;;;;;;4915039;29;20066;-78
2023/02/11 13:34:45;;;;;;;55.47;22.60;;;;;;;;;;4911956;29;20073;-76
2023/02/11 13:37:35;;;;;;;48.92;21.30;;;;;;;;;;4913191;29;20388;-76
2023/02/11 13:40:05;;;;;;;50.78;21.40;;;;;;;;;;4911779;29;20361;-77
2023/02/11 13:42:44;;;;;;;54.95;21.98;;;;;;;;;;4915844;29;20032;-77
2023/02/11 13:45:26;;;;;;;47.58;21.35;;;;;;;;;;4917764;29;20391;-76
2023/02/11 13:47:57;;;;;;;46.28;19.80;;;;;;;;;;4918260;29;20117;-77
2023/02/11 13:50:26;;;;;;;48.53;19.13;;;;;;;;;;4914766;29;20544;-77
2023/02/11 13:53:00;;;;;;;39.58;18.38;;;;;;;;;;4921054;29;20503;-77
2023/02/11 13:55:28;;;;;;;37.22;17.70;;;;;;;;;;4922434;29;20480;-77
2023/02/11 13:58:12;;;;;;;43.45;17.55;;;;;;;;;;4921388;29;20066;-76
2023/02/11 14:00:37;;;;;;;50.35;19.92;;;;;;;;;;4922283;29;20087;-76
2023/02/11 14:09:13;;;;;;;38.33;16.63;;;;;;;;;;4915262;29;20050;-77
2023/02/11 14:12:33;;;;;;;32.00;15.80;;;;;;;;;;4917316;29;20031;-77
2023/02/11 14:15:06;;;;;;;39.08;17.73;;;;;;;;;;4910162;29;20119;-77
2023/02/11 14:17:33;;;;;;;38.88;17.10;;;;;;;;;;4914218;29;20036;-77
2023/02/11 14:20:01;;;;;;;34.85;17.00;;;;;;;;;;4915028;29;20534;-76
2023/02/11 14:22:30;;;;;;;60.22;23.48;;;;;;;;;;4915713;29;20047;-77
2023/02/11 14:25:04;;;;;;;49.15;20.10;;;;;;;;;;4919897;29;20032;-77
2023/02/11 14:27:39;;;;;;;50.05;20.17;;;;;;;;;;4918745;29;20496;-77
2023/02/11 14:30:26;;;;;;;40.22;17.20;;;;;;;;;;4918362;29;20395;-76
2023/02/11 14:33:03;;;;;;;40.25;19.65;;;;;;;;;;4913346;29;20134;-76
2023/02/11 14:36:04;;;;;;;43.22;21.08;;;;;;;;;;4915928;29;20039;-76
2023/02/11 14:38:44;;;;;;;48.58;21.35;;;;;;;;;;4897839;29;20036;-76
2023/02/11 14:41:15;;;;;;;52.75;21.83;;;;;;;;;;4915321;29;20032;-76
2023/02/11 14:43:48;;;;;;;37.65;19.27;;;;;;;;;;4924438;29;20082;-77
2023/02/11 14:46:16;;;;;;;35.40;18.90;;;;;;;;;;4921788;29;20481;-75
2023/02/11 14:48:45;;;;;;;36.45;18.05;;;;;;;;;;4914517;29;20039;-76
2023/02/11 14:51:19;;;;;;;32.58;15.98;;;;;;;;;;4914750;29;20479;-76
2023/02/11 14:53:52;;;;;;;31.90;16.58;;;;;;;;;;4916163;29;20345;-76
2023/02/11 14:56:29;;;;;;;38.40;17.80;;;;;;;;;;4918275;29;20032;-76
2023/02/11 14:58:58;;;;;;;37.45;17.10;;;;;;;;;;4917188;29;20035;-76